sensor_id;sensor_type;location;lat;lon;timestamp;P1;durP1;ratioP1;P2;durP2;ratioP2
15968;SDS011;8085;53.472;9.794;2022-07-23T00:40:58;2.30;;;1.23;;
15968;SDS011;8085;53.472;9.794;2022-07-23T00:47:15;2.20;;;1.13;;
15968;SDS011;8085;53.472;9.794;2022-07-23T00:50:09;3.50;;;1.20;;
15968;SDS011;8085;53.472;9.794;2022-07-23T00:52:43;2.13;;;1.10;;
15968;SDS011;8085;53.472;9.794;2022-07-23T00:55:39;4.40;;;1.23;;
15968;SDS011;8085;53.472;9.794;2022-07-23T00:58:14;3.60;;;0.90;;
15968;SDS011;8085;53.472;9.794;2022-07-23T01:00:43;4.63;;;1.33;;
15968;SDS011;8085;53.472;9.794;2022-07-23T01:03:15;2.83;;;1.10;;
15968;SDS011;8085;53.472;9.794;2022-07-23T01:05:59;2.87;;;1.20;;
15968;SDS011;8085;53.472;9.794;2022-07-23T01:08:27;3.93;;;1.37;;
15968;SDS011;8085;53.472;9.794;2022-07-23T01:10:54;2.00;;;1.10;;
15968;SDS011;8085;53.472;9.794;2022-07-23T01:13:21;5.20;;;1.30;;
15968;SDS011;8085;53.472;9.794;2022-07-23T01:15:48;6.23;;;1.40;;
15968;SDS011;8085;53.472;9.794;2022-07-23T01:18:17;6.80;;;1.23;;
15968;SDS011;8085;53.472;9.794;2022-07-23T01:20:44;4.00;;;1.27;;
15968;SDS011;8085;53.472;9.794;2022-07-23T01:23:13;3.10;;;1.20;;
15968;SDS011;8085;53.472;9.794;2022-07-23T01:26:24;3.10;;;1.50;;
15968;SDS011;8085;53.472;9.794;2022-07-23T01:28:50;7.53;;;1.60;;
15968;SDS011;8085;53.472;9.794;2022-07-23T01:31:22;4.00;;;1.43;;
15968;SDS011;8085;53.472;9.794;2022-07-23T01:33:51;1.97;;;1.00;;
15968;SDS011;8085;53.472;9.794;2022-07-23T01:36:19;2.67;;;0.90;;
15968;SDS011;8085;53.472;9.794;2022-07-23T01:38:47;3.23;;;1.10;;
15968;SDS011;8085;53.472;9.794;2022-07-23T01:41:16;2.43;;;1.10;;
15968;SDS011;8085;53.472;9.794;2022-07-23T01:43:45;3.90;;;1.10;;
15968;SDS011;8085;53.472;9.794;2022-07-23T01:46:18;1.27;;;0.83;;
15968;SDS011;8085;53.472;9.794;2022-07-23T01:48:49;2.83;;;1.20;;
15968;SDS011;8085;53.472;9.794;2022-07-23T01:51:16;3.00;;;1.30;;
15968;SDS011;8085;53.472;9.794;2022-07-23T01:53:48;4.67;;;1.30;;
15968;SDS011;8085;53.472;9.794;2022-07-23T01:56:16;3.93;;;1.20;;
15968;SDS011;8085;53.472;9.794;2022-07-23T01:58:58;2.40;;;1.23;;
15968;SDS011;8085;53.472;9.794;2022-07-23T02:01:34;2.40;;;1.10;;
15968;SDS011;8085;53.472;9.794;2022-07-23T02:04:02;1.97;;;1.20;;
15968;SDS011;8085;53.472;9.794;2022-07-23T02:06:45;2.37;;;1.30;;
15968;SDS011;8085;53.472;9.794;2022-07-23T02:09:15;2.67;;;1.10;;
15968;SDS011;8085;53.472;9.794;2022-07-23T02:11:42;3.53;;;1.40;;
15968;SDS011;8085;53.472;9.794;2022-07-23T02:14:14;3.73;;;1.40;;
15968;SDS011;8085;53.472;9.794;2022-07-23T02:16:50;4.03;;;1.50;;
15968;SDS011;8085;53.472;9.794;2022-07-23T02:19:18;3.53;;;1.10;;
15968;SDS011;8085;53.472;9.794;2022-07-23T02:22:07;2.67;;;1.43;;
15968;SDS011;8085;53.472;9.794;2022-07-23T02:24:40;4.13;;;1.40;;
15968;SDS011;8085;53.472;9.794;2022-07-23T02:27:11;3.73;;;1.17;;
15968;SDS011;8085;53.472;9.794;2022-07-23T02:29:48;2.63;;;1.10;;
15968;SDS011;8085;53.472;9.794;2022-07-23T02:32:16;4.07;;;1.47;;
15968;SDS011;8085;53.472;9.794;2022-07-23T02:34:47;3.43;;;1.83;;
15968;SDS011;8085;53.472;9.794;2022-07-23T02:37:23;5.60;;;1.50;;
15968;SDS011;8085;53.472;9.794;2022-07-23T02:39:55;6.77;;;1.70;;
15968;SDS011;8085;53.472;9.794;2022-07-23T02:42:23;1.77;;;1.30;;
15968;SDS011;8085;53.472;9.794;2022-07-23T02:44:50;4.67;;;1.33;;
15968;SDS011;8085;53.472;9.794;2022-07-23T02:47:18;5.27;;;1.63;;
15968;SDS011;8085;53.472;9.794;2022-07-23T02:49:48;2.63;;;1.50;;
15968;SDS011;8085;53.472;9.794;2022-07-23T02:52:15;3.60;;;1.50;;
15968;SDS011;8085;53.472;9.794;2022-07-23T02:54:44;5.40;;;1.43;;
15968;SDS011;8085;53.472;9.794;2022-07-23T02:57:13;5.63;;;2.03;;
15968;SDS011;8085;53.472;9.794;2022-07-23T02:59:40;2.43;;;1.30;;
15968;SDS011;8085;53.472;9.794;2022-07-23T03:02:07;4.53;;;1.20;;
15968;SDS011;8085;53.472;9.794;2022-07-23T03:04:34;3.53;;;2.07;;
15968;SDS011;8085;53.472;9.794;2022-07-23T03:07:02;3.67;;;1.50;;
15968;SDS011;8085;53.472;9.794;2022-07-23T03:09:29;4.30;;;1.50;;
15968;SDS011;8085;53.472;9.794;2022-07-23T03:11:57;4.60;;;1.50;;
15968;SDS011;8085;53.472;9.794;2022-07-23T03:14:27;3.47;;;1.40;;
15968;SDS011;8085;53.472;9.794;2022-07-23T03:16:57;2.07;;;1.40;;
15968;SDS011;8085;53.472;9.794;2022-07-23T03:19:25;3.77;;;1.73;;
15968;SDS011;8085;53.472;9.794;2022-07-23T03:21:52;5.03;;;1.60;;
15968;SDS011;8085;53.472;9.794;2022-07-23T03:24:30;5.00;;;1.70;;
15968;SDS011;8085;53.472;9.794;2022-07-23T03:27:17;1.80;;;1.40;;
15968;SDS011;8085;53.472;9.794;2022-07-23T03:29:53;2.60;;;1.50;;
15968;SDS011;8085;53.472;9.794;2022-07-23T03:32:22;3.53;;;1.57;;
15968;SDS011;8085;53.472;9.794;2022-07-23T03:34:57;3.37;;;1.97;;
15968;SDS011;8085;53.472;9.794;2022-07-23T03:37:32;5.47;;;2.10;;
15968;SDS011;8085;53.472;9.794;2022-07-23T03:40:45;3.53;;;1.70;;
15968;SDS011;8085;53.472;9.794;2022-07-23T03:47:15;3.93;;;2.20;;
15968;SDS011;8085;53.472;9.794;2022-07-23T03:50:17;5.83;;;2.10;;
15968;SDS011;8085;53.472;9.794;2022-07-23T03:53:32;5.30;;;2.30;;
15968;SDS011;8085;53.472;9.794;2022-07-23T03:56:37;4.57;;;2.37;;
15968;SDS011;8085;53.472;9.794;2022-07-23T03:59:49;4.37;;;2.27;;
15968;SDS011;8085;53.472;9.794;2022-07-23T04:02:59;7.50;;;3.10;;
15968;SDS011;8085;53.472;9.794;2022-07-23T04:06:18;6.20;;;3.07;;
15968;SDS011;8085;53.472;9.794;2022-07-23T04:08:46;8.00;;;2.77;;
15968;SDS011;8085;53.472;9.794;2022-07-23T04:14:12;6.63;;;3.00;;
15968;SDS011;8085;53.472;9.794;2022-07-23T04:16:47;5.37;;;3.00;;
15968;SDS011;8085;53.472;9.794;2022-07-23T04:19:18;4.77;;;2.57;;
15968;SDS011;8085;53.472;9.794;2022-07-23T04:21:53;4.20;;;2.60;;
15968;SDS011;8085;53.472;9.794;2022-07-23T04:24:30;7.17;;;2.50;;
15968;SDS011;8085;53.472;9.794;2022-07-23T04:26:57;4.07;;;2.40;;
15968;SDS011;8085;53.472;9.794;2022-07-23T04:29:26;7.63;;;2.70;;
15968;SDS011;8085;53.472;9.794;2022-07-23T04:31:53;4.17;;;2.90;;
15968;SDS011;8085;53.472;9.794;2022-07-23T04:37:23;5.40;;;2.40;;
15968;SDS011;8085;53.472;9.794;2022-07-23T04:39:56;5.47;;;2.40;;
15968;SDS011;8085;53.472;9.794;2022-07-23T04:42:46;5.33;;;2.30;;
15968;SDS011;8085;53.472;9.794;2022-07-23T04:45:24;4.27;;;2.23;;
15968;SDS011;8085;53.472;9.794;2022-07-23T04:48:05;7.90;;;2.87;;
15968;SDS011;8085;53.472;9.794;2022-07-23T04:50:57;5.80;;;2.77;;
15968;SDS011;8085;53.472;9.794;2022-07-23T04:53:45;4.80;;;2.07;;
15968;SDS011;8085;53.472;9.794;2022-07-23T04:56:15;6.00;;;2.30;;
15968;SDS011;8085;53.472;9.794;2022-07-23T04:58:43;3.47;;;2.00;;
15968;SDS011;8085;53.472;9.794;2022-07-23T05:01:10;4.30;;;2.43;;
15968;SDS011;8085;53.472;9.794;2022-07-23T05:03:37;3.90;;;2.07;;
15968;SDS011;8085;53.472;9.794;2022-07-23T05:06:05;5.27;;;2.50;;
15968;SDS011;8085;53.472;9.794;2022-07-23T05:08:35;3.93;;;2.50;;
15968;SDS011;8085;53.472;9.794;2022-07-23T05:11:03;4.97;;;2.47;;
15968;SDS011;8085;53.472;9.794;2022-07-23T05:13:33;4.30;;;2.10;;
15968;SDS011;8085;53.472;9.794;2022-07-23T05:16:02;5.77;;;2.27;;
15968;SDS011;8085;53.472;9.794;2022-07-23T05:18:51;6.67;;;2.27;;
15968;SDS011;8085;53.472;9.794;2022-07-23T05:21:26;5.53;;;2.33;;
15968;SDS011;8085;53.472;9.794;2022-07-23T05:24:04;5.80;;;2.40;;
15968;SDS011;8085;53.472;9.794;2022-07-23T05:26:42;4.73;;;1.93;;
15968;SDS011;8085;53.472;9.794;2022-07-23T05:29:12;3.37;;;2.07;;
15968;SDS011;8085;53.472;9.794;2022-07-23T05:31:39;5.37;;;2.23;;
15968;SDS011;8085;53.472;9.794;2022-07-23T05:34:06;3.07;;;1.93;;
15968;SDS011;8085;53.472;9.794;2022-07-23T05:36:35;5.43;;;2.00;;
15968;SDS011;8085;53.472;9.794;2022-07-23T05:39:02;3.13;;;2.00;;
15968;SDS011;8085;53.472;9.794;2022-07-23T05:41:30;5.40;;;2.37;;
15968;SDS011;8085;53.472;9.794;2022-07-23T05:43:57;4.70;;;2.20;;
15968;SDS011;8085;53.472;9.794;2022-07-23T05:46:24;2.87;;;2.20;;
15968;SDS011;8085;53.472;9.794;2022-07-23T05:48:51;5.47;;;2.40;;
15968;SDS011;8085;53.472;9.794;2022-07-23T05:51:24;4.27;;;2.67;;
15968;SDS011;8085;53.472;9.794;2022-07-23T05:53:52;5.07;;;3.00;;
15968;SDS011;8085;53.472;9.794;2022-07-23T05:56:19;4.43;;;2.70;;
15968;SDS011;8085;53.472;9.794;2022-07-23T05:58:47;3.03;;;2.47;;
15968;SDS011;8085;53.472;9.794;2022-07-23T06:01:14;5.50;;;2.63;;
15968;SDS011;8085;53.472;9.794;2022-07-23T06:03:40;4.07;;;2.50;;
15968;SDS011;8085;53.472;9.794;2022-07-23T06:06:07;3.40;;;2.70;;
15968;SDS011;8085;53.472;9.794;2022-07-23T06:08:40;8.40;;;3.00;;
15968;SDS011;8085;53.472;9.794;2022-07-23T06:11:15;3.97;;;2.50;;
15968;SDS011;8085;53.472;9.794;2022-07-23T06:13:44;5.80;;;2.80;;
15968;SDS011;8085;53.472;9.794;2022-07-23T06:16:13;4.40;;;3.17;;
15968;SDS011;8085;53.472;9.794;2022-07-23T06:18:40;6.50;;;2.67;;
15968;SDS011;8085;53.472;9.794;2022-07-23T06:21:07;4.17;;;2.70;;
15968;SDS011;8085;53.472;9.794;2022-07-23T06:23:36;4.77;;;2.83;;
15968;SDS011;8085;53.472;9.794;2022-07-23T06:26:05;4.20;;;2.57;;
15968;SDS011;8085;53.472;9.794;2022-07-23T06:28:33;4.30;;;2.40;;
15968;SDS011;8085;53.472;9.794;2022-07-23T06:31:07;4.63;;;2.43;;
15968;SDS011;8085;53.472;9.794;2022-07-23T06:33:40;3.50;;;2.20;;
15968;SDS011;8085;53.472;9.794;2022-07-23T06:36:10;4.43;;;2.10;;
15968;SDS011;8085;53.472;9.794;2022-07-23T06:38:37;2.87;;;1.97;;
15968;SDS011;8085;53.472;9.794;2022-07-23T06:41:12;2.30;;;1.67;;
15968;SDS011;8085;53.472;9.794;2022-07-23T06:43:43;2.73;;;1.27;;
15968;SDS011;8085;53.472;9.794;2022-07-23T06:46:10;2.87;;;1.40;;
15968;SDS011;8085;53.472;9.794;2022-07-23T06:48:37;1.43;;;0.90;;
15968;SDS011;8085;53.472;9.794;2022-07-23T06:51:04;1.63;;;1.20;;
15968;SDS011;8085;53.472;9.794;2022-07-23T06:53:31;1.27;;;0.90;;
15968;SDS011;8085;53.472;9.794;2022-07-23T06:56:00;5.13;;;1.30;;
15968;SDS011;8085;53.472;9.794;2022-07-23T06:58:27;2.67;;;1.07;;
15968;SDS011;8085;53.472;9.794;2022-07-23T07:00:55;1.47;;;0.87;;
15968;SDS011;8085;53.472;9.794;2022-07-23T07:03:22;1.43;;;0.80;;
15968;SDS011;8085;53.472;9.794;2022-07-23T07:05:49;2.37;;;0.80;;
15968;SDS011;8085;53.472;9.794;2022-07-23T07:08:18;3.67;;;0.90;;
15968;SDS011;8085;53.472;9.794;2022-07-23T07:10:45;0.90;;;0.77;;
15968;SDS011;8085;53.472;9.794;2022-07-23T07:13:12;1.57;;;0.73;;
15968;SDS011;8085;53.472;9.794;2022-07-23T07:15:39;0.60;;;0.60;;
15968;SDS011;8085;53.472;9.794;2022-07-23T07:18:07;0.87;;;0.60;;
15968;SDS011;8085;53.472;9.794;2022-07-23T07:20:35;3.70;;;1.00;;
15968;SDS011;8085;53.472;9.794;2022-07-23T07:23:02;0.80;;;0.60;;
15968;SDS011;8085;53.472;9.794;2022-07-23T07:25:29;2.93;;;0.60;;
15968;SDS011;8085;53.472;9.794;2022-07-23T07:27:56;0.93;;;0.50;;
15968;SDS011;8085;53.472;9.794;2022-07-23T07:30:23;1.93;;;1.00;;
15968;SDS011;8085;53.472;9.794;2022-07-23T07:32:50;1.40;;;0.80;;
15968;SDS011;8085;53.472;9.794;2022-07-23T07:35:18;2.20;;;0.70;;
15968;SDS011;8085;53.472;9.794;2022-07-23T07:37:45;1.10;;;0.60;;
15968;SDS011;8085;53.472;9.794;2022-07-23T07:40:12;0.93;;;0.53;;
15968;SDS011;8085;53.472;9.794;2022-07-23T07:42:45;2.10;;;0.80;;
15968;SDS011;8085;53.472;9.794;2022-07-23T07:45:12;1.37;;;0.77;;
15968;SDS011;8085;53.472;9.794;2022-07-23T07:47:40;1.80;;;0.70;;
15968;SDS011;8085;53.472;9.794;2022-07-23T07:50:07;2.87;;;0.80;;
15968;SDS011;8085;53.472;9.794;2022-07-23T07:52:36;2.33;;;0.60;;
15968;SDS011;8085;53.472;9.794;2022-07-23T07:55:03;1.50;;;0.60;;
15968;SDS011;8085;53.472;9.794;2022-07-23T07:57:31;1.50;;;0.77;;
15968;SDS011;8085;53.472;9.794;2022-07-23T07:59:58;0.53;;;0.50;;
15968;SDS011;8085;53.472;9.794;2022-07-23T08:02:25;3.07;;;0.73;;
15968;SDS011;8085;53.472;9.794;2022-07-23T08:04:52;0.80;;;0.50;;
15968;SDS011;8085;53.472;9.794;2022-07-23T08:07:21;1.57;;;0.60;;
15968;SDS011;8085;53.472;9.794;2022-07-23T08:09:49;2.93;;;0.70;;
15968;SDS011;8085;53.472;9.794;2022-07-23T08:12:16;0.80;;;0.40;;
15968;SDS011;8085;53.472;9.794;2022-07-23T08:14:43;0.40;;;0.40;;
15968;SDS011;8085;53.472;9.794;2022-07-23T08:17:13;2.80;;;0.60;;
15968;SDS011;8085;53.472;9.794;2022-07-23T08:19:41;0.50;;;0.40;;
15968;SDS011;8085;53.472;9.794;2022-07-23T08:22:08;0.73;;;0.60;;
15968;SDS011;8085;53.472;9.794;2022-07-23T08:24:35;1.33;;;0.70;;
15968;SDS011;8085;53.472;9.794;2022-07-23T08:27:03;0.80;;;0.63;;
15968;SDS011;8085;53.472;9.794;2022-07-23T08:29:30;2.00;;;0.50;;
15968;SDS011;8085;53.472;9.794;2022-07-23T08:31:57;0.60;;;0.40;;
15968;SDS011;8085;53.472;9.794;2022-07-23T08:34:24;1.47;;;0.60;;
15968;SDS011;8085;53.472;9.794;2022-07-23T08:36:51;0.80;;;0.40;;
15968;SDS011;8085;53.472;9.794;2022-07-23T08:39:18;1.20;;;0.50;;
15968;SDS011;8085;53.472;9.794;2022-07-23T08:41:45;1.87;;;0.50;;
15968;SDS011;8085;53.472;9.794;2022-07-23T08:44:14;0.80;;;0.50;;
15968;SDS011;8085;53.472;9.794;2022-07-23T08:46:43;1.97;;;0.50;;
15968;SDS011;8085;53.472;9.794;2022-07-23T08:49:10;0.73;;;0.40;;
15968;SDS011;8085;53.472;9.794;2022-07-23T08:51:39;1.97;;;0.77;;
15968;SDS011;8085;53.472;9.794;2022-07-23T08:54:06;1.20;;;0.50;;
15968;SDS011;8085;53.472;9.794;2022-07-23T08:56:33;1.27;;;0.40;;
15968;SDS011;8085;53.472;9.794;2022-07-23T08:59:01;0.50;;;0.50;;
15968;SDS011;8085;53.472;9.794;2022-07-23T09:01:30;0.97;;;0.50;;
15968;SDS011;8085;53.472;9.794;2022-07-23T09:03:57;2.90;;;0.40;;
15968;SDS011;8085;53.472;9.794;2022-07-23T09:06:25;1.17;;;0.30;;
15968;SDS011;8085;53.472;9.794;2022-07-23T09:08:54;1.70;;;0.53;;
15968;SDS011;8085;53.472;9.794;2022-07-23T09:11:21;1.80;;;0.70;;
15968;SDS011;8085;53.472;9.794;2022-07-23T09:13:48;1.60;;;0.43;;
15968;SDS011;8085;53.472;9.794;2022-07-23T09:16:19;0.90;;;0.37;;
15968;SDS011;8085;53.472;9.794;2022-07-23T09:18:52;1.63;;;0.40;;
15968;SDS011;8085;53.472;9.794;2022-07-23T09:21:22;2.20;;;0.40;;
15968;SDS011;8085;53.472;9.794;2022-07-23T09:23:52;1.03;;;0.40;;
15968;SDS011;8085;53.472;9.794;2022-07-23T09:26:31;1.33;;;0.40;;
15968;SDS011;8085;53.472;9.794;2022-07-23T09:29:04;1.43;;;0.43;;
15968;SDS011;8085;53.472;9.794;2022-07-23T09:31:35;2.43;;;0.43;;
15968;SDS011;8085;53.472;9.794;2022-07-23T09:34:28;0.70;;;0.40;;
15968;SDS011;8085;53.472;9.794;2022-07-23T09:42:54;1.00;;;0.50;;
15968;SDS011;8085;53.472;9.794;2022-07-23T09:45:42;1.80;;;0.57;;
15968;SDS011;8085;53.472;9.794;2022-07-23T09:48:10;1.90;;;0.50;;
15968;SDS011;8085;53.472;9.794;2022-07-23T09:50:39;0.90;;;0.50;;
15968;SDS011;8085;53.472;9.794;2022-07-23T09:53:07;2.30;;;0.60;;
15968;SDS011;8085;53.472;9.794;2022-07-23T09:55:35;0.57;;;0.33;;
15968;SDS011;8085;53.472;9.794;2022-07-23T09:58:03;0.93;;;0.40;;
15968;SDS011;8085;53.472;9.794;2022-07-23T10:00:32;0.30;;;0.30;;
15968;SDS011;8085;53.472;9.794;2022-07-23T10:03:00;0.70;;;0.40;;
15968;SDS011;8085;53.472;9.794;2022-07-23T10:05:28;0.40;;;0.30;;
15968;SDS011;8085;53.472;9.794;2022-07-23T10:07:57;0.53;;;0.20;;
15968;SDS011;8085;53.472;9.794;2022-07-23T10:10:27;2.80;;;0.40;;
15968;SDS011;8085;53.472;9.794;2022-07-23T10:12:55;0.43;;;0.37;;
15968;SDS011;8085;53.472;9.794;2022-07-23T10:15:40;1.60;;;0.40;;
15968;SDS011;8085;53.472;9.794;2022-07-23T10:18:08;1.50;;;0.20;;
15968;SDS011;8085;53.472;9.794;2022-07-23T10:20:37;0.83;;;0.40;;
15968;SDS011;8085;53.472;9.794;2022-07-23T10:23:07;0.20;;;0.20;;
15968;SDS011;8085;53.472;9.794;2022-07-23T10:25:41;0.47;;;0.40;;
15968;SDS011;8085;53.472;9.794;2022-07-23T10:28:22;1.63;;;0.40;;
15968;SDS011;8085;53.472;9.794;2022-07-23T10:31:16;0.60;;;0.40;;
15968;SDS011;8085;53.472;9.794;2022-07-23T10:33:54;0.50;;;0.40;;
15968;SDS011;8085;53.472;9.794;2022-07-23T10:36:29;0.60;;;0.30;;
15968;SDS011;8085;53.472;9.794;2022-07-23T10:39:05;0.87;;;0.40;;
15968;SDS011;8085;53.472;9.794;2022-07-23T10:41:42;0.30;;;0.20;;
15968;SDS011;8085;53.472;9.794;2022-07-23T10:44:11;0.87;;;0.37;;
15968;SDS011;8085;53.472;9.794;2022-07-23T10:46:55;0.30;;;0.30;;
15968;SDS011;8085;53.472;9.794;2022-07-23T10:49:39;0.50;;;0.30;;
15968;SDS011;8085;53.472;9.794;2022-07-23T10:52:20;0.23;;;0.23;;
15968;SDS011;8085;53.472;9.794;2022-07-23T10:54:50;0.30;;;0.30;;
15968;SDS011;8085;53.472;9.794;2022-07-23T10:57:19;0.60;;;0.20;;
15968;SDS011;8085;53.472;9.794;2022-07-23T11:02:51;1.10;;;0.40;;
15968;SDS011;8085;53.472;9.794;2022-07-23T11:05:19;0.80;;;0.30;;
15968;SDS011;8085;53.472;9.794;2022-07-23T11:10:48;0.40;;;0.40;;
15968;SDS011;8085;53.472;9.794;2022-07-23T11:13:30;0.60;;;0.37;;
15968;SDS011;8085;53.472;9.794;2022-07-23T11:16:04;1.10;;;0.37;;
15968;SDS011;8085;53.472;9.794;2022-07-23T11:18:56;0.50;;;0.30;;
15968;SDS011;8085;53.472;9.794;2022-07-23T11:24:12;1.00;;;0.40;;
15968;SDS011;8085;53.472;9.794;2022-07-23T11:29:45;1.37;;;0.30;;
15968;SDS011;8085;53.472;9.794;2022-07-23T11:35:22;0.37;;;0.20;;
15968;SDS011;8085;53.472;9.794;2022-07-23T11:38:13;0.87;;;0.30;;
15968;SDS011;8085;53.472;9.794;2022-07-23T11:40:42;1.10;;;0.30;;
15968;SDS011;8085;53.472;9.794;2022-07-23T11:43:12;0.40;;;0.33;;
15968;SDS011;8085;53.472;9.794;2022-07-23T11:45:40;1.13;;;0.50;;
15968;SDS011;8085;53.472;9.794;2022-07-23T11:48:09;0.77;;;0.30;;
15968;SDS011;8085;53.472;9.794;2022-07-23T11:50:42;1.90;;;0.43;;
15968;SDS011;8085;53.472;9.794;2022-07-23T11:53:09;0.63;;;0.50;;
15968;SDS011;8085;53.472;9.794;2022-07-23T11:55:36;0.83;;;0.40;;
15968;SDS011;8085;53.472;9.794;2022-07-23T11:58:04;0.57;;;0.40;;
15968;SDS011;8085;53.472;9.794;2022-07-23T12:00:32;0.40;;;0.40;;
15968;SDS011;8085;53.472;9.794;2022-07-23T12:03:02;0.63;;;0.50;;
15968;SDS011;8085;53.472;9.794;2022-07-23T12:05:31;1.57;;;0.60;;
15968;SDS011;8085;53.472;9.794;2022-07-23T12:08:01;0.57;;;0.57;;
15968;SDS011;8085;53.472;9.794;2022-07-23T12:10:30;1.30;;;0.40;;
15968;SDS011;8085;53.472;9.794;2022-07-23T12:13:04;1.13;;;0.50;;
15968;SDS011;8085;53.472;9.794;2022-07-23T12:15:34;0.93;;;0.50;;
15968;SDS011;8085;53.472;9.794;2022-07-23T12:18:04;1.80;;;0.60;;
15968;SDS011;8085;53.472;9.794;2022-07-23T12:20:33;1.23;;;0.40;;
15968;SDS011;8085;53.472;9.794;2022-07-23T12:23:02;2.00;;;0.50;;
15968;SDS011;8085;53.472;9.794;2022-07-23T12:25:38;1.57;;;0.50;;
15968;SDS011;8085;53.472;9.794;2022-07-23T12:28:32;0.97;;;0.53;;
15968;SDS011;8085;53.472;9.794;2022-07-23T12:31:04;2.33;;;0.60;;
15968;SDS011;8085;53.472;9.794;2022-07-23T12:33:32;1.50;;;0.70;;
15968;SDS011;8085;53.472;9.794;2022-07-23T12:36:01;1.40;;;0.70;;
15968;SDS011;8085;53.472;9.794;2022-07-23T12:38:36;2.87;;;0.73;;
15968;SDS011;8085;53.472;9.794;2022-07-23T12:41:03;1.30;;;0.67;;
15968;SDS011;8085;53.472;9.794;2022-07-23T12:43:32;2.70;;;0.70;;
15968;SDS011;8085;53.472;9.794;2022-07-23T12:46:02;1.60;;;0.57;;
15968;SDS011;8085;53.472;9.794;2022-07-23T12:48:31;1.00;;;0.60;;
15968;SDS011;8085;53.472;9.794;2022-07-23T12:51:02;1.93;;;0.63;;
15968;SDS011;8085;53.472;9.794;2022-07-23T12:53:31;0.87;;;0.50;;
15968;SDS011;8085;53.472;9.794;2022-07-23T12:56:00;2.03;;;0.70;;
15968;SDS011;8085;53.472;9.794;2022-07-23T12:58:39;3.33;;;0.90;;
15968;SDS011;8085;53.472;9.794;2022-07-23T13:01:08;1.60;;;0.60;;
15968;SDS011;8085;53.472;9.794;2022-07-23T13:03:37;1.07;;;0.60;;
15968;SDS011;8085;53.472;9.794;2022-07-23T13:06:07;2.57;;;0.70;;
15968;SDS011;8085;53.472;9.794;2022-07-23T13:08:36;3.20;;;0.63;;
15968;SDS011;8085;53.472;9.794;2022-07-23T13:11:05;2.83;;;0.70;;
15968;SDS011;8085;53.472;9.794;2022-07-23T13:13:33;1.90;;;0.50;;
15968;SDS011;8085;53.472;9.794;2022-07-23T13:16:01;3.90;;;0.80;;
15968;SDS011;8085;53.472;9.794;2022-07-23T13:18:31;0.97;;;0.60;;
15968;SDS011;8085;53.472;9.794;2022-07-23T13:20:58;0.73;;;0.60;;
15968;SDS011;8085;53.472;9.794;2022-07-23T13:23:25;2.07;;;0.73;;
15968;SDS011;8085;53.472;9.794;2022-07-23T13:25:52;1.00;;;0.60;;
15968;SDS011;8085;53.472;9.794;2022-07-23T13:28:20;1.47;;;0.60;;
15968;SDS011;8085;53.472;9.794;2022-07-23T13:30:49;1.13;;;0.60;;
15968;SDS011;8085;53.472;9.794;2022-07-23T13:33:17;1.87;;;0.67;;
15968;SDS011;8085;53.472;9.794;2022-07-23T13:35:47;2.03;;;0.60;;
15968;SDS011;8085;53.472;9.794;2022-07-23T13:38:14;3.43;;;1.00;;
15968;SDS011;8085;53.472;9.794;2022-07-23T13:40:42;2.20;;;0.70;;
15968;SDS011;8085;53.472;9.794;2022-07-23T13:43:12;0.57;;;0.40;;
15968;SDS011;8085;53.472;9.794;2022-07-23T13:45:40;2.00;;;0.50;;
15968;SDS011;8085;53.472;9.794;2022-07-23T13:48:09;1.40;;;0.50;;
15968;SDS011;8085;53.472;9.794;2022-07-23T13:50:38;0.67;;;0.43;;
15968;SDS011;8085;53.472;9.794;2022-07-23T13:53:08;2.23;;;0.53;;
15968;SDS011;8085;53.472;9.794;2022-07-23T13:55:37;0.63;;;0.40;;
15968;SDS011;8085;53.472;9.794;2022-07-23T13:58:05;0.53;;;0.50;;
15968;SDS011;8085;53.472;9.794;2022-07-23T14:00:34;1.07;;;0.60;;
15968;SDS011;8085;53.472;9.794;2022-07-23T14:03:02;1.13;;;0.50;;
15968;SDS011;8085;53.472;9.794;2022-07-23T14:05:29;1.90;;;0.60;;
15968;SDS011;8085;53.472;9.794;2022-07-23T14:07:57;0.73;;;0.70;;
15968;SDS011;8085;53.472;9.794;2022-07-23T14:10:26;0.30;;;0.30;;
15968;SDS011;8085;53.472;9.794;2022-07-23T14:12:53;0.90;;;0.47;;
15968;SDS011;8085;53.472;9.794;2022-07-23T14:15:21;0.40;;;0.30;;
15968;SDS011;8085;53.472;9.794;2022-07-23T14:17:48;0.93;;;0.50;;
15968;SDS011;8085;53.472;9.794;2022-07-23T14:20:16;3.63;;;0.67;;
15968;SDS011;8085;53.472;9.794;2022-07-23T14:22:43;1.73;;;0.50;;
15968;SDS011;8085;53.472;9.794;2022-07-23T14:25:10;0.73;;;0.50;;
15968;SDS011;8085;53.472;9.794;2022-07-23T14:27:38;5.53;;;0.87;;
15968;SDS011;8085;53.472;9.794;2022-07-23T14:30:06;0.60;;;0.50;;
15968;SDS011;8085;53.472;9.794;2022-07-23T14:32:34;2.37;;;0.90;;
15968;SDS011;8085;53.472;9.794;2022-07-23T14:35:01;1.00;;;0.53;;
15968;SDS011;8085;53.472;9.794;2022-07-23T14:37:29;1.97;;;0.50;;
15968;SDS011;8085;53.472;9.794;2022-07-23T14:39:56;1.13;;;0.43;;
15968;SDS011;8085;53.472;9.794;2022-07-23T14:42:22;1.77;;;0.50;;
15968;SDS011;8085;53.472;9.794;2022-07-23T14:44:51;2.03;;;0.50;;
15968;SDS011;8085;53.472;9.794;2022-07-23T14:47:18;1.10;;;0.30;;
15968;SDS011;8085;53.472;9.794;2022-07-23T14:49:45;0.50;;;0.47;;
15968;SDS011;8085;53.472;9.794;2022-07-23T14:52:12;1.20;;;0.50;;
15968;SDS011;8085;53.472;9.794;2022-07-23T14:54:39;0.87;;;0.50;;
15968;SDS011;8085;53.472;9.794;2022-07-23T14:57:05;0.60;;;0.50;;
15968;SDS011;8085;53.472;9.794;2022-07-23T14:59:34;1.27;;;0.50;;
15968;SDS011;8085;53.472;9.794;2022-07-23T15:02:02;0.50;;;0.40;;
15968;SDS011;8085;53.472;9.794;2022-07-23T15:04:29;0.60;;;0.57;;
15968;SDS011;8085;53.472;9.794;2022-07-23T15:06:56;1.63;;;0.50;;
15968;SDS011;8085;53.472;9.794;2022-07-23T15:09:23;0.73;;;0.40;;
15968;SDS011;8085;53.472;9.794;2022-07-23T15:11:50;2.67;;;0.60;;
15968;SDS011;8085;53.472;9.794;2022-07-23T15:14:17;3.80;;;0.60;;
15968;SDS011;8085;53.472;9.794;2022-07-23T15:16:44;1.20;;;0.70;;
15968;SDS011;8085;53.472;9.794;2022-07-23T15:19:12;0.57;;;0.53;;
15968;SDS011;8085;53.472;9.794;2022-07-23T15:21:39;1.37;;;0.70;;
15968;SDS011;8085;53.472;9.794;2022-07-23T15:24:06;1.63;;;0.70;;
15968;SDS011;8085;53.472;9.794;2022-07-23T15:26:34;2.17;;;0.50;;
15968;SDS011;8085;53.472;9.794;2022-07-23T15:29:01;0.40;;;0.40;;
15968;SDS011;8085;53.472;9.794;2022-07-23T15:31:31;1.93;;;0.63;;
15968;SDS011;8085;53.472;9.794;2022-07-23T15:33:58;1.47;;;0.60;;
15968;SDS011;8085;53.472;9.794;2022-07-23T15:36:26;2.00;;;0.60;;
15968;SDS011;8085;53.472;9.794;2022-07-23T15:38:53;1.20;;;0.53;;
15968;SDS011;8085;53.472;9.794;2022-07-23T15:41:20;2.80;;;0.57;;
15968;SDS011;8085;53.472;9.794;2022-07-23T15:43:47;0.83;;;0.57;;
15968;SDS011;8085;53.472;9.794;2022-07-23T15:46:14;1.63;;;0.50;;
15968;SDS011;8085;53.472;9.794;2022-07-23T15:48:42;0.60;;;0.47;;
15968;SDS011;8085;53.472;9.794;2022-07-23T15:51:10;1.23;;;0.70;;
15968;SDS011;8085;53.472;9.794;2022-07-23T15:53:38;1.37;;;0.57;;
15968;SDS011;8085;53.472;9.794;2022-07-23T15:56:05;3.97;;;0.80;;
15968;SDS011;8085;53.472;9.794;2022-07-23T15:58:32;1.60;;;0.60;;
15968;SDS011;8085;53.472;9.794;2022-07-23T16:00:59;1.07;;;0.80;;
15968;SDS011;8085;53.472;9.794;2022-07-23T16:03:28;1.33;;;0.80;;
15968;SDS011;8085;53.472;9.794;2022-07-23T16:05:55;1.17;;;0.60;;
15968;SDS011;8085;53.472;9.794;2022-07-23T16:08:22;1.70;;;0.73;;
15968;SDS011;8085;53.472;9.794;2022-07-23T16:10:51;1.03;;;0.60;;
15968;SDS011;8085;53.472;9.794;2022-07-23T16:13:18;0.77;;;0.60;;
15968;SDS011;8085;53.472;9.794;2022-07-23T16:15:45;3.07;;;0.60;;
15968;SDS011;8085;53.472;9.794;2022-07-23T16:18:12;1.27;;;0.60;;
15968;SDS011;8085;53.472;9.794;2022-07-23T16:20:39;2.10;;;0.77;;
15968;SDS011;8085;53.472;9.794;2022-07-23T16:23:06;1.57;;;0.70;;
15968;SDS011;8085;53.472;9.794;2022-07-23T16:25:33;2.47;;;0.80;;
15968;SDS011;8085;53.472;9.794;2022-07-23T16:28:02;1.73;;;0.80;;
15968;SDS011;8085;53.472;9.794;2022-07-23T16:30:31;0.93;;;0.60;;
15968;SDS011;8085;53.472;9.794;2022-07-23T16:32:59;2.70;;;0.67;;
15968;SDS011;8085;53.472;9.794;2022-07-23T16:35:26;1.70;;;0.90;;
15968;SDS011;8085;53.472;9.794;2022-07-23T16:37:53;0.70;;;0.40;;